Cincinnati, Ohio
Traffic Map
Current Weather Conditions
Cincinnati, Ohio
Clear
Clear
19°
Feels Like: 19°
Wind Chill: 19° Ceiling: Unl
Heat Index: 19° Visibility: 10mi
Dew Point: 16° Wind: 8mph
Humidity: 84% Direction: 210° (SSW)
Pressure: 30.16in Gusts: 0mph
Raw Report DataKLUK 280353Z AUTO 21007KT 10SM CLR 19/16 A3016 RMK AO2 SLP208 T01890161
Traffic Incident Summary
Active as of:
Severity:
Category:
InformationThere was an issue retrieving the traffic information for this location. Please try a different location or try again shortly.
Advertisements
Track Severe Weather on mobile